Terminal Aerodrome Forecast
Issued by NWS Wilmington, OH

Current Version | Previous Version | Graphics & Text | Print | Product List | Glossary On
Versions: 1 2 3 4 5 6 7 8 9 10 11 12 13 14 15 16 17 18 19 20 21 22 23 24 25 26 27 28
000
FTUS41 KILN 282332
TAFCVG
TAF
KCVG 282332Z 2900/3006 34005KT P6SM SCT040
     FM290800 00000KT 3SM BR SCT150
      TEMPO 2908/2912 2SM BR
     FM291300 27005KT P6SM SCT040 BKN120
     FM292000 28009KT P6SM -SHRA VCTS BKN035CB
     FM292300 30006KT P6SM FEW035 SCT120=

USA.gov is the U.S. government's official web portal to all federal, state and local government web resources and services.